Time;durP1;ratioP1;P1;durP2;ratioP2;P2;SDS_P1;SDS_P2;PMS_P1;PMS_P2;Temp;Humidity;BMP_temperature;BMP_pressure;BME280_temperature;BME280_humidity;BME280_pressure;Samples;Min_cycle;Max_cycle;Signal;HPM_P1;HPM_P2
2022/08/27 00:01:39;;;;;;;14.02;3.97;;;;;;;24.12;48.26;99182.88;7736433;32;39256;-70
2022/08/27 00:05:55;;;;;;;11.48;3.85;;;;;;;23.94;49.73;99191.00;7756456;32;40748;-70
2022/08/27 00:10:16;;;;;;;12.18;4.35;;;;;;;23.71;51.10;99200.19;7765333;32;36479;-70
2022/08/27 00:14:33;;;;;;;12.68;3.80;;;;;;;24.06;50.17;99192.75;7766499;32;37899;-69
2022/08/27 00:18:49;;;;;;;12.13;3.62;;;;;;;23.63;51.28;99193.72;7766636;32;39946;-70
2022/08/27 00:23:05;;;;;;;10.38;3.90;;;;;;;23.70;50.28;99198.59;7766636;32;40133;-69
2022/08/27 00:27:21;;;;;;;11.35;3.65;;;;;;;23.65;50.58;99200.91;7766558;32;38483;-70
2022/08/27 00:31:37;;;;;;;11.32;3.78;;;;;;;23.76;50.26;99201.84;7766599;32;36921;-69
2022/08/27 00:35:54;;;;;;;10.68;3.30;;;;;;;23.73;50.10;99203.41;7766213;32;39849;-70
2022/08/27 00:40:15;;;;;;;11.48;3.40;;;;;;;23.86;49.54;99192.09;7750254;32;40941;-70
2022/08/27 00:44:31;;;;;;;11.07;3.80;;;;;;;23.91;49.17;99198.13;7739361;32;37822;-70
2022/08/27 00:48:50;;;;;;;9.35;4.00;;;;;;;23.69;49.32;99196.97;7738191;32;36790;-70
2022/08/27 00:53:10;;;;;;;9.65;3.67;;;;;;;23.67;50.00;99199.34;7739407;32;38640;-69
2022/08/27 00:57:27;;;;;;;8.80;3.70;;;;;;;23.74;49.25;99201.44;7738098;32;39902;-70
2022/08/27 01:06:21;;;;;;;9.15;3.45;;;;;;;23.58;50.14;99202.38;7763437;32;36806;-69
2022/08/27 01:10:41;;;;;;;8.18;3.25;;;;;;;23.69;49.19;99202.53;7764929;32;39651;-70
2022/08/27 01:14:57;;;;;;;11.70;4.12;;;;;;;23.99;48.60;99210.97;7764890;32;39949;-70
2022/08/27 01:19:34;;;;;;;15.27;4.22;;;;;;;23.84;49.36;99209.16;7765498;32;38169;-70
2022/08/27 01:24:02;;;;;;;11.98;3.40;;;;;;;23.94;48.89;99214.06;7747390;32;37378;-71
2022/08/27 01:28:20;;;;;;;8.35;3.60;;;;;;;23.92;48.58;99212.84;7759886;32;40042;-70
2022/08/27 01:32:38;;;;;;;14.98;3.58;;;;;;;23.75;49.16;99211.34;7764645;32;40034;-70
2022/08/27 01:36:55;;;;;;;13.18;3.97;;;;;;;23.55;49.44;99214.25;7755699;32;37526;-71
2022/08/27 01:41:12;;;;;;;10.45;3.20;;;;;;;23.54;49.16;99207.09;7764013;32;38011;-71
2022/08/27 01:45:38;;;;;;;12.48;3.60;;;;;;;23.81;48.42;99215.47;7738568;32;40140;-70
2022/08/27 01:49:54;;;;;;;9.50;3.58;;;;;;;23.95;46.81;99214.88;7738609;32;40812;-69
2022/08/27 01:54:10;;;;;;;9.38;3.58;;;;;;;23.96;46.59;99225.63;7744544;32;37944;-70
2022/08/27 01:58:30;;;;;;;8.80;3.22;;;;;;;24.05;46.68;99219.00;7765358;32;37853;-70
2022/08/27 02:02:46;;;;;;;16.60;3.75;;;;;;;23.95;46.88;99206.53;7764890;32;38886;-70
2022/08/27 02:07:03;;;;;;;10.02;4.32;;;;;;;23.81;48.73;99215.47;7764483;32;40807;-70
2022/08/27 02:11:19;;;;;;;11.63;4.45;;;;;;;23.35;54.75;99212.72;7764498;32;37818;-69
2022/08/27 02:15:36;;;;;;;11.90;4.43;;;;;;;23.34;54.71;99216.69;7763883;32;37080;-69
2022/08/27 02:19:52;;;;;;;12.25;4.28;;;;;;;23.20;55.82;99214.47;7765244;32;39377;-69
2022/08/27 02:24:08;;;;;;;12.00;4.53;;;;;;;23.40;54.95;99213.25;7746530;32;40054;-69
2022/08/27 02:28:25;;;;;;;12.60;4.18;;;;;;;23.39;54.27;99210.81;7738337;32;38691;-69
2022/08/27 02:32:41;;;;;;;10.00;3.72;;;;;;;23.15;53.70;99201.69;7754839;32;38065;-69
2022/08/27 02:36:57;;;;;;;11.55;3.80;;;;;;;23.11;52.61;99200.84;7762836;32;39408;-70
2022/08/27 02:41:15;;;;;;;9.55;4.20;;;;;;;23.11;51.25;99200.84;7738970;32;40085;-69
2022/08/27 02:45:31;;;;;;;9.15;3.50;;;;;;;23.15;50.75;99215.59;7762502;32;39704;-69
2022/08/27 02:49:50;;;;;;;8.23;3.50;;;;;;;23.35;49.57;99199.66;7754732;32;38147;-69
2022/08/27 02:54:06;;;;;;;12.15;3.90;;;;;;;23.24;49.83;99202.22;7748026;32;40106;-69
2022/08/27 02:58:24;;;;;;;12.70;3.90;;;;;;;23.31;49.27;99203.53;7742743;32;39508;-69
2022/08/27 03:02:40;;;;;;;14.18;3.72;;;;;;;23.03;50.32;99202.63;7760824;32;37897;-69
2022/08/27 03:06:57;;;;;;;12.15;3.42;;;;;;;23.20;49.15;99198.59;7751187;32;37886;-70
2022/08/27 03:11:13;;;;;;;15.40;3.90;;;;;;;23.18;49.50;99211.25;7738141;32;39368;-69
2022/08/27 03:15:29;;;;;;;13.70;3.75;;;;;;;22.92;49.80;99200.84;7737103;32;39905;-69
2022/08/27 03:19:45;;;;;;;9.20;3.40;;;;;;;22.84;50.80;99203.50;7737024;32;38038;-69
2022/08/27 03:24:02;;;;;;;11.45;3.58;;;;;;;22.89;50.60;99202.38;7760244;32;37905;-69
2022/08/27 03:28:32;;;;;;;7.72;3.50;;;;;;;23.02;49.21;99198.25;7763544;32;39470;-69
2022/08/27 03:32:49;;;;;;;9.77;3.72;;;;;;;22.92;49.92;99195.28;7737526;32;40175;-69
2022/08/27 03:37:05;;;;;;;10.85;3.75;;;;;;;23.01;49.25;99202.22;7737885;32;37861;-69
2022/08/27 03:41:22;;;;;;;14.55;4.10;;;;;;;22.66;51.69;99207.91;7759232;32;35840;-69
2022/08/27 03:45:58;;;;;;;10.77;4.05;;;;;;;22.74;50.93;99201.31;7752644;32;40484;-69
2022/08/27 03:50:17;;;;;;;8.05;3.85;;;;;;;22.74;51.28;99201.31;7740775;32;39851;-70
2022/08/27 03:54:39;;;;;;;15.73;4.35;;;;;;;22.52;52.24;99202.06;7748364;32;38678;-70
2022/08/27 03:58:55;;;;;;;7.95;3.70;;;;;;;22.63;51.43;99211.44;7739623;32;37092;-69
2022/08/27 04:03:13;;;;;;;14.87;4.05;;;;;;;22.71;51.04;99213.16;7748791;32;40004;-69
2022/08/27 04:07:29;;;;;;;15.15;4.20;;;;;;;22.64;51.87;99213.81;7763971;32;39428;-69
2022/08/27 04:11:45;;;;;;;10.63;3.95;;;;;;;22.63;50.02;99215.00;7752091;32;37677;-69
2022/08/27 04:16:03;;;;;;;9.85;4.18;;;;;;;22.46;51.85;99210.69;7739895;32;37110;-69
2022/08/27 04:20:19;;;;;;;8.85;3.80;;;;;;;22.43;52.29;99211.41;7739790;32;38683;-70
2022/08/27 04:24:52;;;;;;;13.40;4.43;;;;;;;22.57;52.08;99215.66;7740187;32;38517;-69
2022/08/27 04:29:08;;;;;;;10.50;3.65;;;;;;;22.29;53.11;99216.69;7739429;32;37831;-69
2022/08/27 04:33:24;;;;;;;11.60;3.95;;;;;;;22.55;52.73;99212.44;7755410;32;37094;-69
2022/08/27 04:37:40;;;;;;;6.37;3.87;;;;;;;22.37;53.33;99215.69;7740835;32;39359;-69
2022/08/27 04:41:58;;;;;;;8.15;3.90;;;;;;;22.55;51.80;99204.91;7712264;32;39894;-70
2022/08/27 04:46:20;;;;;;;13.23;3.80;;;;;;;22.43;52.68;99210.63;7712104;32;38207;-71
2022/08/27 04:50:43;;;;;;;10.50;3.37;;;;;;;22.41;52.78;99211.00;7712164;32;37902;-71
2022/08/27 04:55:00;;;;;;;8.60;3.42;;;;;;;22.64;51.73;99215.81;7710985;32;39534;-71
2022/08/27 04:59:16;;;;;;;11.93;4.32;;;;;;;22.50;52.96;99217.13;7751631;32;40068;-69
2022/08/27 05:03:32;;;;;;;10.00;4.57;;;;;;;22.47;52.32;99220.66;7725284;32;37773;-70
2022/08/27 05:07:48;;;;;;;13.45;4.15;;;;;;;22.48;53.00;99219.47;7725803;32;37920;-70
2022/08/27 05:12:04;;;;;;;16.77;4.05;;;;;;;22.60;52.26;99221.28;7737366;32;39392;-70
2022/08/27 05:16:21;;;;;;;12.57;3.83;;;;;;;22.69;52.80;99221.06;7738475;32;39885;-70
2022/08/27 05:20:47;;;;;;;25.73;4.55;;;;;;;22.47;53.82;99217.88;7714571;32;38662;-70
2022/08/27 05:25:05;;;;;;;13.62;4.00;;;;;;;22.57;54.76;99230.34;7725862;32;38458;-68
2022/08/27 05:29:21;;;;;;;14.07;4.20;;;;;;;22.32;55.45;99224.28;7711773;32;39355;-70
2022/08/27 05:33:38;;;;;;;8.57;3.83;;;;;;;22.56;55.40;99225.16;7731102;32;39971;-71
2022/08/27 05:37:54;;;;;;;17.02;4.50;;;;;;;22.74;54.91;99219.97;7738420;32;38786;-71
2022/08/27 05:42:10;;;;;;;15.52;4.62;;;;;;;22.72;55.08;99216.75;7754100;32;38142;-70
2022/08/27 05:46:27;;;;;;;9.00;3.85;;;;;;;22.54;55.25;99216.37;7738547;32;39392;-70
2022/08/27 05:50:44;;;;;;;16.65;4.75;;;;;;;22.67;54.44;99215.06;7756842;32;40532;-69
2022/08/27 05:55:00;;;;;;;7.87;3.83;;;;;;;22.95;54.73;99211.22;7742864;32;37961;-69
2022/08/27 06:03:53;;;;;;;9.80;3.72;;;;;;;23.32;54.99;99219.03;7743677;32;39954;-81
2022/08/27 06:08:09;;;;;;;8.85;3.50;;;;;;;23.62;53.48;99225.50;7739006;32;40367;-76
2022/08/27 06:12:25;;;;;;;9.52;3.78;;;;;;;24.00;52.36;99229.25;7761898;32;38711;-75
2022/08/27 06:16:43;;;;;;;9.43;3.60;;;;;;;24.28;49.99;99230.81;7765188;32;37070;-77
2022/08/27 06:20:59;;;;;;;13.45;4.05;;;;;;;24.49;48.42;99223.91;7765067;32;39642;-77
2022/08/27 06:25:15;;;;;;;12.37;3.75;;;;;;;24.67;45.64;99227.75;7765080;32;39843;-77
2022/08/27 06:29:33;;;;;;;9.60;3.40;;;;;;;24.71;45.22;99231.37;7764893;32;37888;-79
2022/08/27 06:33:52;;;;;;;10.32;3.90;;;;;;;25.00;46.38;99242.84;7764945;32;36399;-75
2022/08/27 06:38:08;;;;;;;7.53;3.47;;;;;;;25.03;47.17;99239.28;7740646;32;38665;-76
2022/08/27 06:42:25;;;;;;;13.60;3.58;;;;;;;25.14;48.25;99241.38;7761172;32;40010;-78
2022/08/27 06:46:42;;;;;;;12.23;3.85;;;;;;;25.32;48.74;99242.41;7764734;32;37795;-77
2022/08/27 06:50:58;;;;;;;12.68;3.22;;;;;;;25.49;48.16;99238.97;7764719;32;37183;-77
2022/08/27 06:55:15;;;;;;;12.13;3.45;;;;;;;25.41;48.43;99248.44;7764603;32;39283;-76
2022/08/27 06:59:31;;;;;;;15.15;3.67;;;;;;;25.45;48.88;99252.06;7764486;32;40817;-76
2022/08/27 07:03:47;;;;;;;9.55;3.03;;;;;;;25.68;48.15;99254.66;7742261;32;38685;-77
2022/08/27 07:08:05;;;;;;;16.45;3.80;;;;;;;25.85;45.07;99250.41;7737496;32;37372;-79
2022/08/27 07:12:22;;;;;;;10.48;3.58;;;;;;;25.75;43.13;99255.88;7737348;32;39764;-73
2022/08/27 07:16:46;;;;;;;12.60;3.50;;;;;;;25.93;43.62;99256.03;7737279;32;40112;-76
2022/08/27 07:21:06;;;;;;;10.68;3.17;;;;;;;25.95;43.12;99267.63;7736181;32;38751;-73
2022/08/27 07:25:22;;;;;;;9.88;3.37;;;;;;;26.06;42.49;99265.72;7737141;32;37187;-73
2022/08/27 07:29:39;;;;;;;8.88;3.42;;;;;;;26.19;41.84;99260.59;7737107;32;39348;-74
2022/08/27 07:33:56;;;;;;;14.38;3.10;;;;;;;26.26;40.85;99263.44;7736614;32;40062;-72
2022/08/27 07:38:12;;;;;;;10.45;3.70;;;;;;;26.39;41.57;99266.69;7736562;32;38790;-74
2022/08/27 07:47:04;;;;;;;14.43;4.40;;;;;;;26.71;41.59;99266.06;7751231;32;39302;-73
2022/08/27 07:51:22;;;;;;;13.23;3.97;;;;;;;26.88;39.22;99258.91;7751942;32;40849;-73
2022/08/27 07:55:38;;;;;;;9.45;4.10;;;;;;;26.88;37.59;99258.91;7753329;32;38614;-73
2022/08/27 07:59:54;;;;;;;17.20;3.67;;;;;;;27.27;39.08;99259.00;7748797;32;37081;-73
2022/08/27 08:04:10;;;;;;;8.98;3.62;;;;;;;27.60;40.66;99264.66;7763117;32;39308;-73
2022/08/27 08:08:33;;;;;;;11.80;3.95;;;;;;;27.71;40.55;99254.22;7748843;32;40647;-74
2022/08/27 08:12:50;;;;;;;14.65;4.00;;;;;;;27.02;40.04;99263.75;7736158;32;37254;-76
2022/08/27 08:17:06;;;;;;;14.93;3.70;;;;;;;27.76;39.16;99258.62;7736146;32;37179;-76
2022/08/27 08:21:25;;;;;;;8.32;3.12;;;;;;;27.64;38.71;99260.63;7736267;32;39365;-79
2022/08/27 08:25:41;;;;;;;9.48;3.50;;;;;;;28.08;38.95;99264.22;7743182;32;39717;-78
2022/08/27 08:30:00;;;;;;;13.60;3.75;;;;;;;28.52;38.07;99256.47;7764120;32;37581;-76
2022/08/27 08:34:18;;;;;;;9.75;3.33;;;;;;;28.66;36.90;99256.44;7766257;32;37288;-78
2022/08/27 08:38:36;;;;;;;8.70;3.22;;;;;;;28.57;37.25;99253.28;7766318;32;40403;-74
2022/08/27 08:42:53;;;;;;;10.45;3.65;;;;;;;28.50;37.52;99254.09;7766493;32;39873;-74
2022/08/27 08:47:18;;;;;;;13.62;3.70;;;;;;;28.73;37.11;99255.63;7766309;32;38677;-74
2022/08/27 08:51:39;;;;;;;9.75;3.28;;;;;;;29.00;36.54;99253.06;7765185;32;37251;-73
2022/08/27 08:55:59;;;;;;;8.68;3.25;;;;;;;28.82;35.58;99251.16;7765202;32;39059;-73
2022/08/27 09:00:16;;;;;;;12.43;3.35;;;;;;;29.65;34.30;99247.81;7766153;32;40406;-73
2022/08/27 09:04:32;;;;;;;9.15;2.87;;;;;;;29.90;32.72;99236.34;7766100;32;38738;-75
2022/08/27 09:08:48;;;;;;;7.70;3.20;;;;;;;29.99;33.83;99243.50;7752295;32;37804;-71
2022/08/27 09:13:12;;;;;;;12.00;3.30;;;;;;;30.12;32.67;99241.75;7739000;32;39403;-72
2022/08/27 09:17:28;;;;;;;9.57;3.50;;;;;;;30.22;32.21;99240.00;7738918;32;39895;-73
2022/08/27 09:21:44;;;;;;;13.38;3.28;;;;;;;30.25;32.33;99234.38;7739296;32;37188;-73
2022/08/27 09:26:00;;;;;;;10.13;3.00;;;;;;;30.11;31.21;99240.16;7739015;32;37962;-73
2022/08/27 09:30:20;;;;;;;7.25;2.90;;;;;;;30.85;31.75;99242.47;7738874;32;39638;-73
2022/08/27 09:34:39;;;;;;;10.05;2.85;;;;;;;30.33;30.20;99247.13;7738835;32;40746;-73
2022/08/27 09:39:01;;;;;;;6.35;2.35;;;;;;;30.42;26.94;99251.47;7751914;32;37690;-73
2022/08/27 09:43:22;;;;;;;27.98;3.08;;;;;;;31.28;26.21;99241.88;7763865;32;37775;-73
2022/08/27 09:48:01;;;;;;;7.18;2.87;;;;;;;31.52;23.53;99236.28;7765782;32;39916;-72
2022/08/27 09:52:33;;;;;;;6.28;2.70;;;;;;;32.19;26.28;99231.47;7765717;32;40844;-73
2022/08/27 09:56:52;;;;;;;8.68;2.97;;;;;;;32.27;26.82;99234.94;7760233;32;37986;-73
2022/08/27 10:01:29;;;;;;;12.77;3.10;;;;;;;32.00;27.82;99243.50;7739154;32;38090;-72
2022/08/27 10:05:50;;;;;;;11.63;3.47;;;;;;;32.17;28.86;99225.47;7765629;32;39273;-72
2022/08/27 10:10:37;;;;;;;11.00;3.03;;;;;;;32.48;28.51;99239.34;7765342;32;40015;-72
2022/08/27 10:14:58;;;;;;;10.75;3.30;;;;;;;32.78;31.29;99234.69;7764662;32;37709;-73
2022/08/27 10:19:21;;;;;;;11.43;3.17;;;;;;;32.65;28.38;99236.59;7755355;32;37112;-73
2022/08/27 10:24:00;;;;;;;12.02;2.62;;;;;;;33.25;29.20;99228.78;7756685;32;40120;-72
2022/08/27 10:28:37;;;;;;;16.45;2.97;;;;;;;32.80;29.43;99232.22;7741215;32;40744;-73
2022/08/27 10:33:15;;;;;;;9.95;3.30;;;;;;;33.28;29.55;99235.59;7764290;32;38578;-73
2022/08/27 10:37:43;;;;;;;11.75;3.00;;;;;;;33.47;29.24;99234.72;7773097;32;36981;-72
2022/08/27 10:42:09;;;;;;;12.02;3.15;;;;;;;33.38;28.16;99228.12;7759071;32;40158;-73
2022/08/27 10:46:47;;;;;;;11.75;3.37;;;;;;;33.17;27.34;99223.75;7737909;32;40719;-73
2022/08/27 10:51:12;;;;;;;6.70;2.35;;;;;;;33.10;28.37;99224.72;7724038;32;37629;-74
2022/08/27 10:55:41;;;;;;;7.95;2.80;;;;;;;33.52;28.41;99215.66;7737739;32;37103;-73
2022/08/27 11:00:17;;;;;;;16.35;2.95;;;;;;;32.47;28.27;99223.66;7724697;32;39350;-74
2022/08/27 11:04:42;;;;;;;12.77;2.87;;;;;;;33.37;26.79;99220.88;7737726;32;40003;-73
2022/08/27 11:09:02;;;;;;;10.07;2.55;;;;;;;33.79;26.15;99210.53;7724518;32;38531;-73
2022/08/27 11:13:39;;;;;;;8.00;2.40;;;;;;;34.67;21.14;99213.31;7758811;32;37177;-74
2022/08/27 11:18:07;;;;;;;6.60;2.17;;;;;;;35.48;22.51;99207.53;7739597;32;39292;-75
2022/08/27 11:22:33;;;;;;;8.77;2.80;;;;;;;35.43;20.38;99208.91;7750998;32;39765;-74
2022/08/27 11:26:52;;;;;;;11.07;3.12;;;;;;;34.89;20.04;99201.34;7758299;32;37776;-73
2022/08/27 11:31:15;;;;;;;11.68;2.65;;;;;;;35.00;19.64;99201.78;7750656;32;37180;-73
2022/08/27 11:35:54;;;;;;;7.87;2.12;;;;;;;35.21;19.17;99205.19;7764070;32;39360;-73
2022/08/27 11:40:21;;;;;;;10.23;2.28;;;;;;;35.35;16.35;99193.41;7729858;32;39652;-75
2022/08/27 11:44:42;;;;;;;16.23;2.53;;;;;;;35.58;16.45;99185.75;7750455;32;37908;-74
2022/08/27 11:49:01;;;;;;;13.18;2.17;;;;;;;36.07;17.24;99173.91;7737306;32;37160;-74
2022/08/27 11:53:24;;;;;;;13.38;2.47;;;;;;;35.65;16.73;99177.78;7736637;32;38267;-73
2022/08/27 11:57:43;;;;;;;10.43;2.08;;;;;;;36.32;17.85;99178.66;7749279;32;39937;-74
2022/08/27 12:02:19;;;;;;;6.35;2.40;;;;;;;36.53;16.57;99174.22;7748231;32;37513;-74
2022/08/27 12:06:42;;;;;;;13.50;2.58;;;;;;;37.21;17.59;99165.81;7726111;32;37030;-73
2022/08/27 12:11:12;;;;;;;11.23;2.35;;;;;;;37.56;15.69;99153.41;7766625;32;39405;-73
2022/08/27 12:15:59;;;;;;;9.32;1.92;;;;;;;36.95;16.04;99150.28;7766707;32;40764;-73
2022/08/27 12:20:53;;;;;;;10.70;2.35;;;;;;;36.78;17.53;99152.59;7743025;32;37579;-73
2022/08/27 12:25:20;;;;;;;6.47;2.37;;;;;;;37.52;17.38;99149.94;7742036;32;37170;-74
2022/08/27 12:29:44;;;;;;;7.53;2.00;;;;;;;37.33;14.69;99134.91;7753106;32;40105;-74
2022/08/27 12:34:00;;;;;;;9.75;2.40;;;;;;;36.91;17.18;99139.06;7752770;32;39977;-73
2022/08/27 12:38:31;;;;;;;11.15;2.70;;;;;;;37.65;17.46;99133.53;7757264;32;38648;-74
2022/08/27 12:43:03;;;;;;;9.88;2.40;;;;;;;37.90;17.84;99137.31;7753401;32;37036;-75
2022/08/27 12:47:18;;;;;;;;;;;;;;;37.46;17.99;99129.84;7763831;32;40014;-74
2022/08/27 12:51:36;;;;;;;5.22;2.28;;;;;;;37.31;18.39;99126.88;7756204;32;40344;-74
2022/08/27 12:55:56;;;;;;;8.60;2.65;;;;;;;37.46;17.99;99120.56;7752989;32;37983;-74
2022/08/27 13:00:37;;;;;;;6.28;2.15;;;;;;;37.44;18.00;99117.41;7755290;32;38100;-75
2022/08/27 13:04:54;;;;;;;11.02;2.75;;;;;;;36.95;18.86;99113.34;7763859;32;39914;-74
2022/08/27 13:09:10;;;;;;;7.60;2.42;;;;;;;37.11;19.63;99109.44;7751926;32;39630;-76
2022/08/27 13:13:26;;;;;;;8.60;2.53;;;;;;;37.05;19.19;99102.78;7749408;32;38610;-75
2022/08/27 13:17:45;;;;;;;17.65;3.30;;;;;;;37.05;18.02;99108.47;7763663;32;37171;-76
2022/08/27 13:22:06;;;;;;;15.65;3.00;;;;;;;36.51;19.67;99111.44;7725515;32;39142;-75
2022/08/27 13:26:28;;;;;;;11.65;2.87;;;;;;;36.82;19.51;99116.31;7742662;32;39408;-74
2022/08/27 13:30:46;;;;;;;8.30;2.92;;;;;;;36.97;18.22;99114.44;7732988;32;37805;-74
2022/08/27 13:35:03;;;;;;;9.68;2.87;;;;;;;37.09;19.99;99126.16;7729873;32;36964;-73
2022/08/27 13:39:20;;;;;;;12.30;2.78;;;;;;;36.78;18.74;99122.13;7740438;32;40111;-74
2022/08/27 13:43:42;;;;;;;10.77;2.80;;;;;;;36.83;20.22;99120.72;7752027;32;40756;-75
2022/08/27 13:48:00;;;;;;;6.95;2.40;;;;;;;37.50;19.20;99112.66;7758142;32;37983;-74
2022/08/27 13:52:27;;;;;;;12.18;2.75;;;;;;;37.24;18.76;99120.69;7738294;32;36979;-75
2022/08/27 13:56:46;;;;;;;10.25;3.00;;;;;;;36.48;21.67;99118.06;7724900;32;39351;-75
2022/08/27 14:01:30;;;;;;;11.40;2.60;;;;;;;37.09;21.06;99117.66;7751114;32;39883;-73
2022/08/27 14:05:55;;;;;;;8.85;2.42;;;;;;;37.29;19.20;99112.34;7764908;32;38378;-76
2022/08/27 14:10:32;;;;;;;10.90;2.83;;;;;;;36.60;20.34;99119.19;7765142;32;37688;-74
2022/08/27 14:14:53;;;;;;;10.82;2.42;;;;;;;37.17;19.05;99116.06;7765175;32;39369;-74
2022/08/27 14:19:24;;;;;;;8.95;2.83;;;;;;;36.96;19.57;99110.06;7763993;32;39952;-74
2022/08/27 14:23:40;;;;;;;7.93;2.53;;;;;;;36.23;20.30;99107.69;7746361;32;37843;-75
2022/08/27 14:27:57;;;;;;;17.90;3.65;;;;;;;36.40;20.44;99111.06;7741629;32;37262;-73
2022/08/27 14:32:15;;;;;;;13.10;3.28;;;;;;;37.06;19.49;99107.22;7737744;32;39544;-75
2022/08/27 14:36:39;;;;;;;14.70;3.28;;;;;;;37.31;19.51;99112.66;7737688;32;40106;-75
2022/08/27 14:40:59;;;;;;;11.98;2.72;;;;;;;37.27;19.06;99109.16;7724155;32;38517;-75
2022/08/27 14:45:22;;;;;;;11.20;3.10;;;;;;;37.54;20.15;99107.59;7737724;32;37073;-74
2022/08/27 14:49:43;;;;;;;15.35;3.35;;;;;;;38.22;19.08;99115.16;7762922;32;39303;-74
2022/08/27 14:54:00;;;;;;;13.38;3.17;;;;;;;38.43;19.27;99114.12;7750929;32;40922;-73
2022/08/27 14:58:16;;;;;;;8.38;2.87;;;;;;;38.57;20.86;99120.38;7764526;32;38703;-73
2022/08/27 15:02:33;;;;;;;12.18;2.55;;;;;;;38.68;19.35;99115.78;7764453;32;37087;-76
2022/08/27 15:06:49;;;;;;;17.25;5.37;;;;;;;38.69;19.29;99116.59;7759891;32;40206;-75
2022/08/27 15:11:13;;;;;;;14.82;3.83;;;;;;;38.69;19.89;99117.37;7737451;32;38923;-74
2022/08/27 15:15:29;;;;;;;13.93;3.30;;;;;;;38.63;19.28;99127.06;7742344;32;37881;-74
2022/08/27 15:19:46;;;;;;;15.80;3.42;;;;;;;38.54;20.02;99121.38;7764326;32;37086;-75
2022/08/27 15:24:24;;;;;;;11.23;3.00;;;;;;;38.14;19.57;99126.88;7764479;32;39076;-74
2022/08/27 15:28:40;;;;;;;16.98;3.25;;;;;;;38.31;21.51;99129.38;7737381;32;39933;-74
2022/08/27 15:32:56;;;;;;;8.00;3.00;;;;;;;37.84;20.13;99119.31;7738033;32;38688;-74
2022/08/27 15:37:12;;;;;;;12.37;3.30;;;;;;;38.34;19.70;99122.69;7749076;32;37957;-75
2022/08/27 15:41:29;;;;;;;7.72;2.90;;;;;;;38.31;19.88;99126.53;7759859;32;40120;-74
2022/08/27 15:45:45;;;;;;;9.02;2.90;;;;;;;37.82;19.64;99121.84;7753723;32;39874;-74
2022/08/27 15:50:01;;;;;;;8.82;3.12;;;;;;;38.14;20.68;99124.03;7763745;32;38580;-74
2022/08/27 15:54:17;;;;;;;10.75;3.33;;;;;;;38.01;21.28;99129.06;7763713;32;37329;-74
2022/08/27 15:58:35;;;;;;;13.27;3.50;;;;;;;36.81;22.09;99128.94;7763504;32;40055;-73
2022/08/27 16:02:51;;;;;;;18.83;3.45;;;;;;;37.03;22.22;99128.81;7763240;32;40765;-74
2022/08/27 16:07:08;;;;;;;7.00;3.00;;;;;;;37.13;23.44;99129.63;7749485;32;37512;-74
2022/08/27 16:11:24;;;;;;;10.38;3.10;;;;;;;37.02;24.82;99122.34;7750109;32;37554;-74
2022/08/27 16:15:40;;;;;;;13.73;3.28;;;;;;;36.73;24.17;99119.91;7736171;32;39361;-74
2022/08/27 16:19:56;;;;;;;9.90;3.30;;;;;;;36.30;25.95;99126.47;7722219;32;39993;-74
2022/08/27 16:24:13;;;;;;;12.65;3.55;;;;;;;36.10;26.20;99127.59;7735798;32;37888;-74
2022/08/27 16:28:29;;;;;;;14.25;3.20;;;;;;;35.87;25.77;99126.00;7735682;32;37957;-73
2022/08/27 16:32:47;;;;;;;10.93;3.12;;;;;;;35.79;25.78;99128.34;7735693;32;40650;-74
2022/08/27 16:37:04;;;;;;;13.30;2.90;;;;;;;35.70;26.22;99128.22;7750387;32;39423;-74
2022/08/27 16:41:21;;;;;;;19.83;3.87;;;;;;;35.49;27.69;99129.78;7735331;32;37823;-77
2022/08/27 16:45:37;;;;;;;13.77;3.78;;;;;;;35.07;29.41;99127.94;7722549;32;37779;-75
2022/08/27 16:54:40;;;;;;;12.95;4.15;;;;;;;34.26;30.82;99135.72;7739319;32;40762;-75
2022/08/27 16:58:56;;;;;;;12.35;3.70;;;;;;;33.91;31.83;99135.50;7739211;32;37878;-74
2022/08/27 17:03:12;;;;;;;12.18;3.50;;;;;;;33.66;30.52;99153.91;7739097;32;37096;-75
2022/08/27 17:07:28;;;;;;;11.38;3.60;;;;;;;33.26;33.96;99142.84;7725452;32;39397;-73
2022/08/27 17:11:51;;;;;;;12.05;3.50;;;;;;;33.18;33.80;99152.72;7739042;32;40819;-74
2022/08/27 17:16:08;;;;;;;12.18;3.70;;;;;;;32.85;34.93;99158.34;7763415;32;38505;-74
2022/08/27 17:20:24;;;;;;;10.45;3.25;;;;;;;32.50;36.04;99166.38;7765906;32;38295;-74
2022/08/27 17:24:45;;;;;;;30.12;5.32;;;;;;;32.18;36.13;99169.87;7766013;32;39389;-73
2022/08/27 17:29:01;;;;;;;14.43;4.95;;;;;;;32.02;36.20;99170.56;7766291;32;40783;-73
2022/08/27 17:33:30;;;;;;;13.27;4.47;;;;;;;31.71;37.46;99184.06;7765695;32;38649;-73
2022/08/27 17:37:46;;;;;;;13.68;4.35;;;;;;;31.68;36.35;99190.53;7752584;32;37022;-73
2022/08/27 17:42:02;;;;;;;9.30;3.15;;;;;;;31.45;35.88;99190.09;7754696;32;40056;-73
2022/08/27 17:46:18;;;;;;;9.85;3.45;;;;;;;31.03;36.71;99208.50;7738562;32;39890;-72
2022/08/27 17:50:34;;;;;;;7.45;3.20;;;;;;;30.85;37.95;99211.53;7738634;32;37874;-73
2022/08/27 17:54:53;;;;;;;16.40;3.55;;;;;;;30.84;37.01;99212.78;7745103;32;38004;-74
2022/08/27 17:59:09;;;;;;;9.93;3.15;;;;;;;30.48;37.83;99224.50;7758518;32;39560;-73
2022/08/27 18:03:25;;;;;;;9.73;3.60;;;;;;;30.40;37.61;99225.78;7762179;32;39937;-73
2022/08/27 18:07:42;;;;;;;11.48;5.12;;;;;;;30.21;36.92;99239.22;7760817;32;139067;-73
2022/08/27 18:11:58;;;;;;;13.73;5.18;;;;;;;30.12;36.40;99250.97;7765025;32;37071;-72
2022/08/27 18:16:24;;;;;;;11.77;4.15;;;;;;;30.16;35.76;99253.75;7765146;32;39317;-74
2022/08/27 18:20:40;;;;;;;11.70;4.18;;;;;;;30.10;36.52;99256.22;7763601;32;40058;-74
2022/08/27 18:24:57;;;;;;;8.80;3.55;;;;;;;29.89;37.47;99262.84;7757846;32;37936;-72
2022/08/27 18:29:14;;;;;;;12.55;3.60;;;;;;;29.85;38.12;99266.91;7760508;32;37179;-73
2022/08/27 18:33:30;;;;;;;13.62;3.80;;;;;;;29.72;38.34;99270.22;7739020;32;39341;-72
2022/08/27 18:37:46;;;;;;;13.25;3.83;;;;;;;29.43;39.16;99286.47;7764280;32;40748;-73
2022/08/27 18:42:03;;;;;;;19.02;5.70;;;;;;;29.31;39.57;99281.38;7750915;32;38870;-72
2022/08/27 18:46:19;;;;;;;13.60;5.20;;;;;;;29.13;39.24;99278.63;7745674;32;37272;-72
2022/08/27 18:50:38;;;;;;;14.30;4.22;;;;;;;28.96;38.52;99280.31;7765166;32;39312;-72
2022/08/27 18:55:07;;;;;;;9.55;4.20;;;;;;;29.06;39.25;99287.88;7758511;32;38971;-73
2022/08/27 18:59:30;;;;;;;23.15;4.87;;;;;;;28.78;40.94;99275.59;7763447;32;37851;-72
2022/08/27 19:03:50;;;;;;;19.42;4.53;;;;;;;28.65;41.48;99280.09;7758051;32;37354;-72
2022/08/27 19:08:07;;;;;;;14.52;5.20;;;;;;;28.54;41.61;99277.28;7750236;32;39505;-73
2022/08/27 19:12:23;;;;;;;19.10;4.22;;;;;;;28.51;41.89;99286.53;7764396;32;40629;-72
2022/08/27 19:16:46;;;;;;;22.90;9.25;;;;;;;28.56;40.41;99276.91;7761910;32;37823;-71
2022/08/27 19:21:03;;;;;;;25.40;11.12;;;;;;;28.37;42.17;99272.53;7750402;32;37119;-73
2022/08/27 19:25:21;;;;;;;29.12;12.27;;;;;;;28.22;42.91;99280.22;7740518;32;39315;-73
2022/08/27 19:29:39;;;;;;;16.23;5.82;;;;;;;28.09;42.93;99275.00;7736859;32;39766;-72
2022/08/27 19:33:56;;;;;;;18.40;5.95;;;;;;;27.98;43.00;99268.63;7742853;32;37784;-74
2022/08/27 19:38:13;;;;;;;13.55;5.53;;;;;;;27.72;43.47;99279.03;7762835;32;37919;-72
2022/08/27 19:42:29;;;;;;;15.13;5.00;;;;;;;27.78;43.11;99276.63;7752860;32;39235;-72
2022/08/27 19:46:48;;;;;;;12.37;5.80;;;;;;;27.44;43.67;99279.03;7760775;32;40571;-72
2022/08/27 19:51:04;;;;;;;20.60;7.93;;;;;;;27.39;44.16;99276.63;7736897;32;38692;-73
2022/08/27 19:55:20;;;;;;;22.50;10.82;;;;;;;27.63;43.09;99264.66;7736450;32;37210;-72
2022/08/27 19:59:36;;;;;;;13.80;6.65;;;;;;;27.79;41.49;99257.84;7739457;32;39444;-73
2022/08/27 20:03:52;;;;;;;11.98;4.45;;;;;;;27.71;40.81;99249.44;7754721;32;40840;-73
2022/08/27 20:08:13;;;;;;;12.63;4.97;;;;;;;27.65;40.62;99251.03;7750728;32;38837;-72
2022/08/27 20:12:28;;;;;;;13.13;4.55;;;;;;;27.79;40.59;99249.44;7752030;32;37365;-72
2022/08/27 20:16:46;;;;;;;19.10;5.35;;;;;;;27.41;43.81;99243.47;7757505;32;38815;-73
2022/08/27 20:21:02;;;;;;;16.65;4.40;;;;;;;27.20;44.12;99242.22;7754023;32;40848;-72
2022/08/27 20:25:22;;;;;;;11.52;4.10;;;;;;;27.37;41.89;99260.22;7751539;32;37856;-73
2022/08/27 20:29:40;;;;;;;17.00;4.47;;;;;;;27.28;40.57;99279.41;7752560;32;37050;-73